Ride Results

Oz Endurance Asher Cup (14-11-2020)
Ride distance: 81.0 km

Outcomes - Oz Endurance Asher Cup (14-11-2020)
Division No. of Entries Retired / DNE Completed Withdrawn Ineligible V/O Percentage Completed
HW 5 - 3 1 - 1 60.00%
MW 12 - 5 4 - 3 41.67%
LW 9 - 7 - - 2 77.78%
JN 11 - 10 - - 1 90.91%
Totals 37 - 25 5 - 7 67.57%
Results - Oz Endurance Asher Cup (14-11-2020)
No. Rider Horse Place Time Leg Speeds Total
Km/Hr
H/R bpm
Heavyweight
60 Corey Nix Macrocarpa Red Bull 1 (BC) 7:37:00 11.4, 11.9, 9.0 10.63 38, 49, 52, 53 (Avg:51)
140 Arron Turnbull Lightning McQueen 2 8:30:00 9.8, 9.6, 9.1 9.53 38, 50, 54, 58 (Avg:54)
137 Matthew Gadsby Melcot Santini 3 8:35:00 9.5, 8.5, 10.3 9.44 40, 47, 54, 59 (Avg:53)
103 Troy Butler Ballanbrae Art Nouveau Lame L3 0:00:00 13.3, 12.6, 10.0 - 41, 49, 53, 55 (Avg:52)
69 Kelly Simpson Kirra W/D on track L2 0:00:00 - - 36, 47, 50 (Avg:48)
Middleweight
62 Stephanie Malmborg Wattle Tree Amir 1 (BC) 6:18:00 12.5, 13.5, 12.5 12.86 39, 48, 50, 55 (Avg:51)
24 Virginia Barber Burralga Thunderbolt 2 7:26:00 11.9, 11.7, 9.3 10.90 41, 48, 49, 54 (Avg:50)
106 Kelsey Irvine Toy Boi SD 3 7:43:00 10.5, 10.9, 9.9 10.50 47, 45, 50, 60 (Avg:51)
108 Jess Dakin Serenade's Secret 4 9:42:00 8.7, 8.9, 7.5 8.35 42, 45, 57, 51 (Avg:51)
107 Bec Miller Boonara Dark Ruby 4 9:42:00 8.7, 8.9, 7.5 8.35 37, 45, 43, 48 (Avg:45)
51 Peter Holmes Spot W/D on track L3 0:00:00 - - 30, 40, 43, 40 (Avg:41)
58 Bianca Richards Future Dreams Maximus Heart Rate L3 0:00:00 9.6, 8.7, 7.4 - 42, 51, 59, 70 (Avg:60)
3 Christal Rizk SB Defino W/D on track L3 0:00:00 - - 35, 42, 40, 40 (Avg:40)
72 Ken Moir Drumlin History W/D after vetting L2 0:00:00 - - 36, 41, 51 (Avg:46)
54 Helen Moore Summer Park Douglas Explorer Heart Rate L2 0:00:00 9.6, 8.7 - 43, 48, 73 (Avg:60)
139 Jo Barsby Raymar Emeer Lame L1 0:00:00 9.8 - 42, 49 (Avg:49)
70 Alana Simpson Lasca's Leroy W/D after vetting L1 0:00:00 - - 49, 51 (Avg:51)
Lightweight
61 Nez Lewis Joey The Patch 1 6:18:00 14.9, 14.4, 10.2 12.86 37, 44, 48, 57 (Avg:49)
64 Karen Winkel Ranek Boz 1 (BC) 6:18:00 14.9, 14.4, 10.2 12.86 41, 44, 44, 44 (Avg:44)
141 Ute Jordan Golden Thunder 3 7:07:00 12.5, 11.2, 10.5 11.38 38, 44, 46, 52 (Avg:47)
66 Amber Weale Wattle Tree Flight 3 7:07:00 12.5, 11.2, 10.5 11.38 43, 48, 47, 51 (Avg:48)
150 Renee Kelso Coolinda Park Watson 5 7:15:00 11.0, 12.1, 10.3 11.17 46, 43, 51, 58 (Avg:50)
44 Bruce Vincent Trapeze 5 7:15:00 11.0, 12.1, 10.3 11.17 38, 47, 53, 58 (Avg:52)
71 Mindy Davies Reid River R-Mani 7 8:35:00 9.5, 10.1, 8.7 9.44 39, 44, 45, 48 (Avg:45)
59 Suzie Berryman Al-Madonna Lame L3 0:00:00 11.0, 12.1, 10.3 - 34, 43, 51, 56 (Avg:50)
143 Shelley Chapman Cameo Felspar Metabolics L3 0:00:00 13.6, 12.4, 10.1 - 39, 46, 50, 48 (Avg:48)
Junior
67 Tahlea Lochtenberg Matta Mia Kassanova 1 (BC) 5:24:00 15.5, 15.4, 14.0 15.00 45, 51, 59, 57 (Avg:55)
63 Ben Hoey Pocket Rocket Patience 2 6:18:00 14.4, 13.3, 11.1 12.86 39, 48, 51, 55 (Avg:51)
142 Noah Hoogland Shanelli-Park Phoenix 3 6:48:00 13.6, 12.4, 10.1 11.91 36, 44, 48, 51 (Avg:47)
28 Georgie Barber Rodborough Samira 4 7:26:00 11.9, 11.7, 9.3 10.90 42, 47, 51, 58 (Avg:52)
41 Bella Brassington Teddy 5 8:46:00 10.5, 8.1, 9.4 9.24 39, 36, 38, 42 (Avg:38)
149 Mary Duncan Follydown Gai Emerald 5 8:46:00 10.5, 9.5, 8.0 9.24 36, 44, 43, 51 (Avg:46)
147 Indra Hofstee Melcot Yasheemah 5 8:46:00 10.5, 9.5, 8.0 9.24 36, 40, 42, 44 (Avg:42)
148 Neeve Whittaker Merlin GG 5 8:46:00 10.5, 9.5, 8.0 9.24 45, 41, 43, 45 (Avg:43)
43 Chintzia Campo Maraahn E'Jaaz 9 9:42:00 8.7, 9.8, 6.9 8.35 39, 44, 39, 48 (Avg:43)
109 Jet North Boonara Shere Khan 9 9:42:00 8.7, 9.0, 7.4 8.35 43, 46, 49, 55 (Avg:50)
68 Sam Long Mub Her Lame L2 0:00:00 9.8, 9.6 - 36, 42, 44 (Avg:43)